createdAt,value
2022-11-30T00:00:08.313Z,51.70
2022-11-30T00:02:14.316Z,38.88
2022-11-30T00:06:23.245Z,31.80
2022-11-30T00:08:29.402Z,41.63
2022-11-30T00:10:31.529Z,35.10
2022-11-30T00:12:34.391Z,39.40
2022-11-30T00:14:36.714Z,38.78
2022-11-30T00:18:41.095Z,44.35
2022-11-30T00:20:43.306Z,38.67
2022-11-30T00:22:45.526Z,54.88
2022-11-30T00:24:47.863Z,38.10
2022-11-30T00:26:50.261Z,36.75
2022-11-30T00:28:52.682Z,35.92
2022-11-30T00:33:03.150Z,42.88
2022-11-30T00:35:05.474Z,40.00
2022-11-30T00:37:07.673Z,40.92
2022-11-30T00:39:09.899Z,47.45
2022-11-30T00:41:12.841Z,43.88
2022-11-30T00:43:15.142Z,37.90
2022-11-30T00:45:17.368Z,36.58
2022-11-30T00:49:21.643Z,53.60
2022-11-30T00:53:25.739Z,45.03
2022-11-30T00:57:33.038Z,45.17
2022-11-30T00:59:35.349Z,42.60
2022-11-30T01:03:39.515Z,38.83
2022-11-30T01:05:43.353Z,35.30
2022-11-30T01:07:45.627Z,40.75
2022-11-30T01:11:49.957Z,39.05
2022-11-30T01:13:52.547Z,41.40
2022-11-30T01:15:54.679Z,41.83
2022-11-30T01:17:58.832Z,50.35
2022-11-30T01:20:01.342Z,35.78
2022-11-30T01:22:03.558Z,40.05
2022-11-30T01:24:06.153Z,37.90
2022-11-30T01:26:09.290Z,37.22
2022-11-30T01:28:11.506Z,38.08
2022-11-30T01:32:15.620Z,41.75
2022-11-30T01:36:26.611Z,37.65
2022-11-30T01:38:35.329Z,45.60
2022-11-30T01:40:37.498Z,36.13
2022-11-30T01:42:46.421Z,34.58
2022-11-30T01:44:52.255Z,50.25
2022-11-30T01:46:59.938Z,42.88
2022-11-30T01:49:16.196Z,48.60
2022-11-30T01:51:18.255Z,43.20
2022-11-30T01:55:37.978Z,48.85
2022-11-30T01:57:45.022Z,40.38
2022-11-30T01:59:50.891Z,50.42
2022-11-30T02:01:55.040Z,40.63
2022-11-30T02:04:03.903Z,37.22
2022-11-30T02:06:06.439Z,38.75
2022-11-30T02:08:12.114Z,42.50
2022-11-30T02:10:22.583Z,45.83
2022-11-30T02:12:34.267Z,41.85
2022-11-30T02:14:46.503Z,42.17
2022-11-30T02:17:02.303Z,40.58
2022-11-30T02:19:30.721Z,39.85
2022-11-30T02:21:44.063Z,44.22
2022-11-30T02:23:58.330Z,37.15
2022-11-30T02:26:27.814Z,39.95
2022-11-30T02:28:32.423Z,56.95
2022-11-30T02:30:40.957Z,46.22
2022-11-30T02:32:49.199Z,42.78
2022-11-30T02:34:52.925Z,43.22
2022-11-30T02:36:56.395Z,42.25
2022-11-30T02:38:58.775Z,39.78
2022-11-30T02:41:00.904Z,39.45
2022-11-30T02:45:08.250Z,37.08
2022-11-30T02:47:18.849Z,36.65
2022-11-30T02:49:30.907Z,37.05
2022-11-30T02:51:36.410Z,38.03
2022-11-30T02:53:38.904Z,36.83
2022-11-30T02:55:41.311Z,50.10
2022-11-30T02:59:45.759Z,45.28
2022-11-30T03:01:51.809Z,35.80
2022-11-30T03:03:53.959Z,39.72
2022-11-30T03:07:58.215Z,43.67
2022-11-30T03:12:02.536Z,35.25
2022-11-30T03:14:04.544Z,39.38
2022-11-30T03:18:14.342Z,35.05
2022-11-30T03:20:16.647Z,33.60
2022-11-30T03:22:18.784Z,36.28
2022-11-30T03:24:20.946Z,37.97
2022-11-30T03:28:25.531Z,43.40
2022-11-30T03:30:27.931Z,42.60
2022-11-30T03:32:31.216Z,40.08
2022-11-30T03:34:33.836Z,41.60
2022-11-30T03:36:36.405Z,44.58
2022-11-30T03:38:38.756Z,48.95
2022-11-30T03:40:41.048Z,38.83
2022-11-30T03:42:43.268Z,35.95
2022-11-30T03:46:47.993Z,48.70
2022-11-30T03:50:52.273Z,27.67
2022-11-30T03:52:54.954Z,44.35
2022-11-30T03:56:58.926Z,38.90
2022-11-30T03:59:01.069Z,51.40
2022-11-30T04:01:06.663Z,36.75
2022-11-30T04:03:08.824Z,40.45
2022-11-30T04:09:15.628Z,41.65
2022-11-30T04:13:21.663Z,42.53
2022-11-30T04:15:24.396Z,48.88
2022-11-30T04:17:26.354Z,45.45
2022-11-30T04:19:28.465Z,54.03
2022-11-30T04:21:30.973Z,43.63
2022-11-30T04:23:36.343Z,48.33
2022-11-30T04:25:39.663Z,39.03
2022-11-30T04:27:41.835Z,45.13
2022-11-30T04:31:46.098Z,35.42
2022-11-30T04:33:48.148Z,47.00
2022-11-30T04:35:54.794Z,42.90
2022-11-30T04:37:56.880Z,56.58
2022-11-30T04:42:01.029Z,29.27
2022-11-30T04:46:06.335Z,44.03
2022-11-30T04:48:08.726Z,46.97
2022-11-30T04:52:13.632Z,48.45
2022-11-30T04:54:15.803Z,47.83
2022-11-30T04:58:19.972Z,48.25
2022-11-30T05:00:23.065Z,43.40
2022-11-30T05:02:25.157Z,51.30
2022-11-30T05:06:29.432Z,43.88
2022-11-30T05:10:34.107Z,37.97
2022-11-30T05:12:36.635Z,47.50
2022-11-30T05:14:38.776Z,64.15
2022-11-30T05:16:40.964Z,42.28
2022-11-30T05:18:43.058Z,47.53
2022-11-30T05:22:51.286Z,45.92
2022-11-30T05:24:53.415Z,42.75
2022-11-30T05:26:55.479Z,48.53
2022-11-30T05:28:57.536Z,47.05
2022-11-30T05:31:06.405Z,51.85
2022-11-30T05:33:09.229Z,47.00
2022-11-30T05:35:11.657Z,45.17
2022-11-30T05:37:13.730Z,38.95
2022-11-30T05:39:15.829Z,38.17
2022-11-30T05:41:20.581Z,41.88
2022-11-30T05:45:27.759Z,39.58
2022-11-30T05:47:30.009Z,50.67
2022-11-30T05:49:32.194Z,49.10
2022-11-30T05:53:36.812Z,47.92
2022-11-30T05:55:39.014Z,48.03
2022-11-30T06:02:28.437Z,47.63
2022-11-30T06:04:31.062Z,60.60
2022-11-30T06:06:33.667Z,42.13
2022-11-30T06:08:35.938Z,48.95
2022-11-30T06:12:40.186Z,49.95
2022-11-30T06:14:42.811Z,43.60
2022-11-30T06:16:45.098Z,42.00
2022-11-30T06:18:47.409Z,44.58
2022-11-30T06:20:49.547Z,50.17
2022-11-30T06:22:52.138Z,42.92
2022-11-30T06:24:54.344Z,47.13
2022-11-30T06:26:56.420Z,51.20
2022-11-30T06:28:58.486Z,49.90
2022-11-30T06:33:03.820Z,52.63
2022-11-30T06:35:06.346Z,45.03
2022-11-30T06:37:08.801Z,49.03
2022-11-30T06:39:12.913Z,39.65
2022-11-30T06:41:15.086Z,49.80
2022-11-30T06:43:17.238Z,47.78
2022-11-30T06:47:21.501Z,35.03
2022-11-30T06:51:25.878Z,36.20
2022-11-30T06:53:28.038Z,46.40
2022-11-30T06:56:29.303Z,46.42
2022-11-30T07:00:34.200Z,45.50
2022-11-30T07:02:36.825Z,41.42
2022-11-30T07:04:39.693Z,45.45
2022-11-30T07:06:41.754Z,42.95
2022-11-30T07:08:44.441Z,49.47
2022-11-30T07:10:47.639Z,65.70
2022-11-30T07:12:50.492Z,44.70
2022-11-30T07:14:55.689Z,40.90
2022-11-30T07:16:58.575Z,46.90
2022-11-30T07:19:00.718Z,46.50
2022-11-30T07:21:04.899Z,42.35
2022-11-30T07:23:26.294Z,44.92
2022-11-30T07:25:47.228Z,44.63
2022-11-30T07:27:49.761Z,45.05
2022-11-30T07:29:52.653Z,50.00
2022-11-30T07:31:54.988Z,48.40
2022-11-30T07:35:59.996Z,36.95
2022-11-30T07:38:06.725Z,41.20
2022-11-30T07:40:12.052Z,42.47
2022-11-30T07:42:17.180Z,47.92
2022-11-30T07:44:19.318Z,48.55
2022-11-30T07:46:21.551Z,45.00
2022-11-30T07:50:25.938Z,40.22
2022-11-30T07:52:29.949Z,44.58
2022-11-30T07:54:32.073Z,42.50
2022-11-30T07:56:34.282Z,50.15
2022-11-30T08:00:41.912Z,43.92
2022-11-30T08:02:44.012Z,47.25
2022-11-30T08:04:46.824Z,51.75
2022-11-30T08:06:49.147Z,42.40
2022-11-30T08:08:54.108Z,41.05
2022-11-30T08:11:00.079Z,52.20
2022-11-30T08:13:02.196Z,50.90
2022-11-30T08:17:22.967Z,58.85
2022-11-30T08:19:25.112Z,58.40
2022-11-30T08:21:27.207Z,50.65
2022-11-30T08:25:35.828Z,54.63
2022-11-30T08:27:37.980Z,58.95
2022-11-30T08:29:40.006Z,56.28
2022-11-30T08:33:44.744Z,49.43
2022-11-30T08:35:46.964Z,51.08
2022-11-30T08:37:49.088Z,56.40
2022-11-30T08:41:53.866Z,63.93
2022-11-30T08:43:55.928Z,51.83
2022-11-30T08:45:58.070Z,63.53
2022-11-30T08:50:02.689Z,67.75
2022-11-30T08:54:22.353Z,56.20
2022-11-30T08:56:24.926Z,65.90
2022-11-30T08:58:32.583Z,62.20
2022-11-30T09:00:34.759Z,55.83
2022-11-30T09:02:37.697Z,54.28
2022-11-30T09:04:39.878Z,53.28
2022-11-30T09:06:42.140Z,56.60
2022-11-30T09:10:47.821Z,52.95
2022-11-30T09:12:49.944Z,58.85
2022-11-30T09:14:57.661Z,52.72
2022-11-30T09:17:00.474Z,55.75
2022-11-30T09:19:02.582Z,48.00
2022-11-30T09:21:09.055Z,48.80
2022-11-30T09:23:20.092Z,57.95
2022-11-30T09:25:23.300Z,47.45
2022-11-30T09:27:31.403Z,56.78
2022-11-30T09:29:33.567Z,50.60
2022-11-30T09:31:35.935Z,57.72
2022-11-30T09:33:38.532Z,48.83
2022-11-30T09:35:40.780Z,54.13
2022-11-30T09:37:43.160Z,50.70
2022-11-30T09:39:45.191Z,56.42
2022-11-30T09:41:56.579Z,54.08
2022-11-30T09:44:17.193Z,63.80
2022-11-30T09:46:30.847Z,50.72
2022-11-30T09:49:10.372Z,55.47
2022-11-30T09:51:19.059Z,51.72
2022-11-30T09:53:43.499Z,51.35
2022-11-30T09:55:46.022Z,63.53
2022-11-30T09:58:02.409Z,53.83
2022-11-30T10:00:15.187Z,51.35
2022-11-30T10:02:18.461Z,52.72
2022-11-30T10:04:25.943Z,56.70
2022-11-30T10:06:33.053Z,49.42
2022-11-30T10:09:09.626Z,51.63
2022-11-30T10:11:14.540Z,55.70
2022-11-30T10:13:44.613Z,54.85
2022-11-30T10:16:10.052Z,47.85
2022-11-30T10:18:23.599Z,51.10
2022-11-30T10:20:44.374Z,54.80
2022-11-30T10:22:56.218Z,51.35
2022-11-30T10:25:17.416Z,45.75
2022-11-30T10:27:34.382Z,50.80
2022-11-30T10:29:41.927Z,45.35
2022-11-30T10:31:45.033Z,46.30
2022-11-30T10:33:50.284Z,55.17
2022-11-30T10:36:00.481Z,53.88
2022-11-30T10:38:12.787Z,62.08
2022-11-30T10:40:49.851Z,51.85
2022-11-30T10:43:20.756Z,49.70
2022-11-30T10:45:24.616Z,52.78
2022-11-30T10:47:36.963Z,56.95
2022-11-30T10:49:45.612Z,52.95
2022-11-30T10:51:53.947Z,61.75
2022-11-30T10:53:58.145Z,52.03
2022-11-30T10:56:12.546Z,50.08
2022-11-30T10:58:32.032Z,49.63
2022-11-30T11:00:34.176Z,58.80
2022-11-30T11:02:42.243Z,50.47
2022-11-30T11:04:44.363Z,60.92
2022-11-30T11:06:53.788Z,65.25
2022-11-30T11:08:56.201Z,59.60
2022-11-30T11:10:58.227Z,60.60
2022-11-30T11:13:01.006Z,62.35
2022-11-30T11:15:18.455Z,60.53
2022-11-30T11:17:23.226Z,58.85
2022-11-30T11:19:33.967Z,60.45
2022-11-30T11:21:36.816Z,71.35
2022-11-30T11:23:41.958Z,73.90
2022-11-30T11:25:44.246Z,69.82
2022-11-30T11:27:53.383Z,69.53
2022-11-30T11:30:08.092Z,69.18
2022-11-30T11:32:25.106Z,71.25
2022-11-30T11:34:33.002Z,58.00
2022-11-30T11:36:37.110Z,71.07
2022-11-30T11:38:48.424Z,63.33
2022-11-30T11:41:03.143Z,58.22
2022-11-30T11:43:17.007Z,65.85
2022-11-30T11:45:39.413Z,69.72
2022-11-30T11:47:45.238Z,65.43
2022-11-30T11:49:49.777Z,70.65
2022-11-30T11:52:04.930Z,67.20
2022-11-30T11:54:26.177Z,61.75
2022-11-30T11:56:40.100Z,64.40
2022-11-30T11:59:04.102Z,62.70
2022-11-30T12:01:38.527Z,58.45
2022-11-30T12:03:48.401Z,58.05
2022-11-30T12:05:57.187Z,61.80
2022-11-30T12:08:14.862Z,50.85
2022-11-30T12:12:55.108Z,55.42
2022-11-30T12:14:58.735Z,61.03
2022-11-30T12:17:10.220Z,49.78
2022-11-30T12:19:19.633Z,57.97
2022-11-30T12:21:40.389Z,46.85
2022-11-30T12:24:04.896Z,51.63
2022-11-30T12:26:13.107Z,54.15
2022-11-30T12:28:24.286Z,48.80
2022-11-30T12:31:11.818Z,53.33
2022-11-30T12:33:29.770Z,56.50
2022-11-30T12:35:40.015Z,63.28
2022-11-30T12:37:48.101Z,48.67
2022-11-30T12:39:57.454Z,50.92
2022-11-30T12:42:07.139Z,49.30
2022-11-30T12:44:29.465Z,53.38
2022-11-30T12:46:43.847Z,49.50
2022-11-30T12:48:48.993Z,50.55
2022-11-30T12:50:51.564Z,55.85
2022-11-30T12:53:17.205Z,50.92
2022-11-30T12:55:37.013Z,53.13
2022-11-30T12:57:51.752Z,49.50
2022-11-30T13:00:16.227Z,47.45
2022-11-30T13:02:36.597Z,64.80
2022-11-30T13:04:42.709Z,58.65
2022-11-30T13:06:54.659Z,54.20
2022-11-30T13:09:26.253Z,62.25
2022-11-30T13:11:35.362Z,55.33
2022-11-30T13:13:42.221Z,68.22
2022-11-30T13:15:46.256Z,66.45
2022-11-30T13:17:52.577Z,68.35
2022-11-30T13:20:08.650Z,70.22
2022-11-30T13:22:19.518Z,67.63
2022-11-30T13:24:34.935Z,69.18
2022-11-30T13:26:48.971Z,69.93
2022-11-30T13:29:45.012Z,72.57
2022-11-30T13:32:22.239Z,71.18
2022-11-30T13:34:39.831Z,64.38
2022-11-30T13:36:45.598Z,107.45
2022-11-30T13:39:08.099Z,82.15
2022-11-30T13:41:10.420Z,75.63
2022-11-30T13:43:21.192Z,72.25
2022-11-30T13:45:27.860Z,66.22
2022-11-30T13:47:34.847Z,65.40
2022-11-30T13:49:37.314Z,72.30
2022-11-30T13:51:42.218Z,60.33
2022-11-30T13:53:48.028Z,68.88
2022-11-30T13:56:03.843Z,70.95
2022-11-30T14:00:30.246Z,64.20
2022-11-30T14:05:19.870Z,78.93
2022-11-30T14:08:10.307Z,65.95
2022-11-30T14:13:14.437Z,76.15
2022-11-30T14:15:42.040Z,63.10
2022-11-30T14:17:51.453Z,71.70
2022-11-30T14:20:17.207Z,83.38
2022-11-30T14:22:39.398Z,77.18
2022-11-30T14:24:54.557Z,78.57
2022-11-30T14:29:24.962Z,80.53
2022-11-30T14:31:33.769Z,75.28
2022-11-30T14:33:46.286Z,76.63
2022-11-30T14:35:55.503Z,90.88
2022-11-30T14:37:59.914Z,89.60
2022-11-30T14:40:14.311Z,79.68
2022-11-30T14:42:29.438Z,92.18
2022-11-30T14:44:36.757Z,92.97
2022-11-30T14:46:39.753Z,82.13
2022-11-30T14:48:44.138Z,95.72
2022-11-30T14:50:52.039Z,95.45
2022-11-30T14:53:13.178Z,97.90
2022-11-30T14:55:19.332Z,89.35
2022-11-30T14:57:39.022Z,99.78
2022-11-30T14:59:53.439Z,88.70
2022-11-30T15:02:07.163Z,88.90
2022-11-30T15:04:18.043Z,90.78
2022-11-30T15:06:23.656Z,89.20
2022-11-30T15:08:43.527Z,99.47
2022-11-30T15:10:46.916Z,88.63
2022-11-30T15:12:51.246Z,93.25
2022-11-30T15:15:14.312Z,94.30
2022-11-30T15:19:24.950Z,94.90
2022-11-30T15:21:33.839Z,78.80
2022-11-30T15:23:36.201Z,82.70
2022-11-30T15:25:44.109Z,79.63
2022-11-30T15:27:46.712Z,90.35
2022-11-30T15:30:01.112Z,78.00
2022-11-30T15:32:15.909Z,84.47
2022-11-30T15:34:28.931Z,81.18
2022-11-30T15:37:11.817Z,90.43
2022-11-30T15:39:24.678Z,79.43
2022-11-30T15:41:30.070Z,75.88
2022-11-30T15:43:39.630Z,78.53
2022-11-30T15:45:53.665Z,84.30
2022-11-30T15:47:57.957Z,78.63
2022-11-30T15:50:00.346Z,76.13
2022-11-30T15:52:17.437Z,81.35
2022-11-30T15:54:46.689Z,71.10
2022-11-30T15:56:57.602Z,72.50
2022-11-30T15:59:20.873Z,69.78
2022-11-30T16:01:26.770Z,73.13
2022-11-30T16:03:29.317Z,69.75
2022-11-30T16:05:33.515Z,74.35
2022-11-30T16:07:48.192Z,75.78
2022-11-30T16:09:50.493Z,75.60
2022-11-30T16:11:57.488Z,76.47
2022-11-30T16:13:59.786Z,74.95
2022-11-30T16:16:02.144Z,69.63
2022-11-30T16:18:19.198Z,71.95
2022-11-30T16:20:28.914Z,79.55
2022-11-30T16:22:31.508Z,69.35
2022-11-30T16:24:33.653Z,60.35
2022-11-30T16:26:50.449Z,73.95
2022-11-30T16:28:55.625Z,81.93
2022-11-30T16:31:02.313Z,76.07
2022-11-30T16:33:04.961Z,66.45
2022-11-30T16:35:36.254Z,68.90
2022-11-30T16:37:39.727Z,78.90
2022-11-30T16:39:45.475Z,83.15
2022-11-30T16:41:48.406Z,74.47
2022-11-30T16:43:54.010Z,78.00
2022-11-30T16:45:58.410Z,70.18
2022-11-30T16:48:00.528Z,73.95
2022-11-30T16:54:14.112Z,88.80
2022-11-30T16:56:23.325Z,89.45
2022-11-30T16:58:25.751Z,73.63
2022-11-30T17:00:28.501Z,76.90
2022-11-30T17:02:30.665Z,78.35
2022-11-30T17:08:38.694Z,73.70
2022-11-30T17:10:42.552Z,74.43
2022-11-30T17:12:45.321Z,80.32
2022-11-30T17:14:47.982Z,80.70
2022-11-30T17:16:50.805Z,85.95
2022-11-30T17:18:53.235Z,75.38
2022-11-30T17:20:55.755Z,74.05
2022-11-30T17:23:01.310Z,87.05
2022-11-30T17:25:11.706Z,75.25
2022-11-30T17:27:15.571Z,74.45
2022-11-30T17:29:18.567Z,72.75
2022-11-30T17:31:21.915Z,66.32
2022-11-30T17:33:24.375Z,70.45
2022-11-30T17:35:26.577Z,73.70
2022-11-30T17:37:29.444Z,74.00
2022-11-30T17:39:34.477Z,77.95
2022-11-30T17:41:39.692Z,62.58
2022-11-30T17:43:42.311Z,71.53
2022-11-30T17:45:44.877Z,77.32
2022-11-30T17:47:47.457Z,77.82
2022-11-30T17:49:52.890Z,73.97
2022-11-30T17:51:55.791Z,67.18
2022-11-30T17:53:58.545Z,70.95
2022-11-30T17:56:05.720Z,67.53
2022-11-30T17:58:08.436Z,75.22
2022-11-30T18:02:17.887Z,76.72
2022-11-30T18:04:26.095Z,88.05
2022-11-30T18:06:29.658Z,75.75
2022-11-30T18:08:34.897Z,108.13
2022-11-30T18:10:41.033Z,81.30
2022-11-30T18:12:43.678Z,81.32
2022-11-30T18:14:46.014Z,78.13
2022-11-30T18:16:48.524Z,76.65
2022-11-30T18:18:51.748Z,83.85
2022-11-30T18:20:54.763Z,77.47
2022-11-30T18:23:08.067Z,82.25
2022-11-30T18:25:10.558Z,78.75
2022-11-30T18:27:46.738Z,83.03
2022-11-30T18:29:48.890Z,79.47
2022-11-30T18:31:51.469Z,80.28
2022-11-30T18:34:05.415Z,72.32
2022-11-30T18:36:08.075Z,70.28
2022-11-30T18:38:10.258Z,70.60
2022-11-30T18:40:13.530Z,82.50
2022-11-30T18:42:16.493Z,73.30
2022-11-30T18:44:19.473Z,76.38
2022-11-30T18:46:22.464Z,77.75
2022-11-30T18:48:25.421Z,80.93
2022-11-30T18:50:29.447Z,75.80
2022-11-30T18:52:31.621Z,76.22
2022-11-30T18:54:37.061Z,69.50
2022-11-30T18:56:39.548Z,85.60
2022-11-30T18:58:46.691Z,76.97
2022-11-30T19:00:48.975Z,78.90
2022-11-30T19:04:53.383Z,52.67
2022-11-30T19:08:57.971Z,69.95
2022-11-30T19:11:05.800Z,78.38
2022-11-30T19:13:08.037Z,87.88
2022-11-30T19:15:10.546Z,77.43
2022-11-30T19:17:12.781Z,75.18
2022-11-30T19:19:17.614Z,74.32
2022-11-30T19:21:21.685Z,71.68
2022-11-30T19:23:23.983Z,78.22
2022-11-30T19:27:28.046Z,71.30
2022-11-30T19:29:30.274Z,88.53
2022-11-30T19:33:36.146Z,71.25
2022-11-30T19:35:38.821Z,71.05
2022-11-30T19:37:41.120Z,75.13
2022-11-30T19:41:48.318Z,74.22
2022-11-30T19:44:03.107Z,71.45
2022-11-30T19:46:08.149Z,83.75
2022-11-30T19:48:14.234Z,77.90
2022-11-30T19:50:16.879Z,73.32
2022-11-30T19:52:20.473Z,75.47
2022-11-30T19:54:22.980Z,76.78
2022-11-30T19:56:26.609Z,77.45
2022-11-30T19:58:31.227Z,85.93
2022-11-30T20:00:33.483Z,75.22
2022-11-30T20:02:36.450Z,79.85
2022-11-30T20:04:39.371Z,79.65
2022-11-30T20:06:42.144Z,87.38
2022-11-30T20:08:47.501Z,82.00
2022-11-30T20:10:49.616Z,80.68
2022-11-30T20:14:54.998Z,78.80
2022-11-30T20:16:57.663Z,80.55
2022-11-30T20:19:02.905Z,78.43
2022-11-30T20:21:13.517Z,81.60
2022-11-30T20:23:15.793Z,80.85
2022-11-30T20:27:23.867Z,58.65
2022-11-30T20:29:25.966Z,78.03
2022-11-30T20:33:31.105Z,92.05
2022-11-30T20:35:39.078Z,64.57
2022-11-30T20:37:44.277Z,82.68
2022-11-30T20:39:47.289Z,83.90
2022-11-30T20:41:49.704Z,84.15
2022-11-30T20:43:53.239Z,83.32
2022-11-30T20:45:55.421Z,77.00
2022-11-30T20:48:13.368Z,100.30
2022-11-30T20:50:15.427Z,69.32
2022-11-30T20:54:22.681Z,72.25
2022-11-30T20:56:25.291Z,64.75
2022-11-30T20:58:27.727Z,72.43
2022-11-30T21:00:30.179Z,78.20
2022-11-30T21:04:37.231Z,73.32
2022-11-30T21:06:40.633Z,83.00
2022-11-30T21:08:43.112Z,74.43
2022-11-30T21:10:45.981Z,84.38
2022-11-30T21:12:48.631Z,75.45
2022-11-30T21:16:53.029Z,85.63
2022-11-30T21:21:11.591Z,86.32
2022-11-30T21:23:13.915Z,76.38
2022-11-30T21:25:16.003Z,74.75
2022-11-30T21:27:18.188Z,77.80
2022-11-30T21:29:20.466Z,75.43
2022-11-30T21:31:24.148Z,85.93
2022-11-30T21:33:27.998Z,83.55
2022-11-30T21:35:30.268Z,88.13
2022-11-30T21:39:35.791Z,64.78
2022-11-30T21:41:39.750Z,82.30
2022-11-30T21:43:42.419Z,86.32
2022-11-30T21:45:58.323Z,69.35
2022-11-30T21:48:00.522Z,76.57
2022-11-30T21:50:04.864Z,81.45
2022-11-30T21:52:07.642Z,94.53
2022-11-30T21:54:13.091Z,71.85
2022-11-30T21:56:21.422Z,86.13
2022-11-30T21:58:23.638Z,83.40
2022-11-30T22:00:26.308Z,96.45
2022-11-30T22:02:28.561Z,84.20
2022-11-30T22:04:30.684Z,85.63
2022-11-30T22:08:37.064Z,79.05
2022-11-30T22:10:39.127Z,75.85
2022-11-30T22:12:41.286Z,75.18
2022-11-30T22:14:43.377Z,79.88
2022-11-30T22:16:45.794Z,82.70
2022-11-30T22:18:48.590Z,82.88
2022-11-30T22:20:50.618Z,79.03
2022-11-30T22:22:52.832Z,77.25
2022-11-30T22:26:57.888Z,74.88
2022-11-30T22:29:03.720Z,74.45
2022-11-30T22:31:07.910Z,85.13
2022-11-30T22:33:10.057Z,76.75
2022-11-30T22:37:14.182Z,92.07
2022-11-30T22:41:19.679Z,85.28
2022-11-30T22:43:21.786Z,73.38
2022-11-30T22:45:24.067Z,82.65
2022-11-30T22:47:26.188Z,84.78
2022-11-30T22:51:32.461Z,73.07
2022-11-30T22:53:36.269Z,78.18
2022-11-30T22:55:38.477Z,83.03
2022-11-30T22:57:41.007Z,83.07
2022-11-30T22:59:43.613Z,78.25
2022-11-30T23:01:48.073Z,82.63
2022-11-30T23:03:51.850Z,75.15
2022-11-30T23:05:54.875Z,90.13
2022-11-30T23:07:57.012Z,76.35
2022-11-30T23:12:01.066Z,68.30
2022-11-30T23:14:06.243Z,72.10
2022-11-30T23:16:09.884Z,77.78
2022-11-30T23:18:11.977Z,84.47
2022-11-30T23:20:14.220Z,77.05
2022-11-30T23:22:16.461Z,76.85
2022-11-30T23:26:28.711Z,81.50
2022-11-30T23:28:30.831Z,74.40
2022-11-30T23:30:33.601Z,79.80
2022-11-30T23:32:36.131Z,71.00
2022-11-30T23:34:38.361Z,83.82
2022-11-30T23:38:42.584Z,58.22
2022-11-30T23:40:44.635Z,68.47
2022-11-30T23:44:48.497Z,81.90
2022-11-30T23:46:50.852Z,67.15
2022-11-30T23:50:55.238Z,75.88
2022-11-30T23:52:57.244Z,77.25
2022-11-30T23:57:01.234Z,78.03
